Fouts Springs, California
Current Conditions -  °F | °C
As of 2:56 PM on Friday 19 Dec 2014 (Local Time) from KUKI Reporting Station
Overcast Overcast  
Wind Chill: 57°   Ceiling: 3900
Heat Index: 57°   Visibility: 10mi
Dew Point: 50°   Wind: 3mph
Humidity: 77%   Direction: 340°NNW
Pressure: 30.12"   Gusts: NA
Location:  39.3318°N, 122.533°W
Report Text: KUKI 192256Z AUTO 34003KT 10SM OVC039 14/10 A3012 RMK AO2 SLP196 T01390100
Loading
Personal Weather Stations






























Interactive Weather Map New forecast layout! Learn more

10-Day Weather Forecast

Advertisements
Track Severe Weather on mobile